createdAt,value
2023-10-10T00:04:42.434Z,29.87
2023-10-10T00:09:46.036Z,29.77
2023-10-10T00:14:52.113Z,29.33
2023-10-10T00:19:55.900Z,29.97
2023-10-10T00:24:58.141Z,29.70
2023-10-10T00:30:01.497Z,29.93
2023-10-10T00:35:07.306Z,32.73
2023-10-10T00:40:11.468Z,29.43
2023-10-10T00:45:15.648Z,29.57
2023-10-10T00:50:26.081Z,29.73
2023-10-10T00:55:34.755Z,30.00
2023-10-10T01:00:43.661Z,29.60
2023-10-10T01:05:53.788Z,29.47
2023-10-10T01:11:02.300Z,29.23
2023-10-10T01:16:06.875Z,29.73
2023-10-10T01:21:10.550Z,28.93
2023-10-10T01:26:12.683Z,29.40
2023-10-10T01:31:19.460Z,29.07
2023-10-10T01:36:22.837Z,29.77
2023-10-10T01:41:40.128Z,29.77
2023-10-10T01:46:42.900Z,29.33
2023-10-10T01:51:45.217Z,28.70
2023-10-10T01:56:48.339Z,29.37
2023-10-10T02:01:53.024Z,29.23
2023-10-10T02:07:05.849Z,28.90
2023-10-10T02:12:17.233Z,30.10
2023-10-10T02:17:23.787Z,29.20
2023-10-10T02:22:48.579Z,37.00
2023-10-10T02:27:57.205Z,29.23
2023-10-10T02:32:59.465Z,29.70
2023-10-10T02:38:06.344Z,28.83
2023-10-10T02:43:20.780Z,29.43
2023-10-10T02:48:24.891Z,29.43
2023-10-10T02:53:27.062Z,29.50
2023-10-10T02:58:39.305Z,29.60
2023-10-10T03:03:43.486Z,29.60
2023-10-10T03:08:53.195Z,29.67
2023-10-10T03:14:02.293Z,29.37
2023-10-10T03:19:04.918Z,29.73
2023-10-10T03:24:16.932Z,29.23
2023-10-10T03:29:28.597Z,29.87
2023-10-10T03:34:34.170Z,29.23
2023-10-10T03:39:55.785Z,29.50
2023-10-10T03:45:16.771Z,29.13
2023-10-10T03:50:37.806Z,29.63
2023-10-10T03:55:58.779Z,29.93
2023-10-10T04:01:20.210Z,29.73
2023-10-10T04:06:41.063Z,29.73
2023-10-10T04:12:01.924Z,29.23
2023-10-10T04:17:23.071Z,29.00
2023-10-10T04:22:43.583Z,28.87
2023-10-10T04:28:04.358Z,29.97
2023-10-10T04:33:24.985Z,30.20
2023-10-10T04:38:45.603Z,29.33
2023-10-10T04:44:06.224Z,28.57
2023-10-10T04:49:26.716Z,28.20
2023-10-10T04:54:47.279Z,28.23
2023-10-10T05:00:08.037Z,29.13
2023-10-10T05:05:29.047Z,29.73
2023-10-10T05:10:49.617Z,28.83
2023-10-10T05:16:10.639Z,27.73
2023-10-10T05:21:31.271Z,30.97
2023-10-10T05:26:33.427Z,27.97
2023-10-10T05:31:37.064Z,28.37
2023-10-10T05:36:39.268Z,29.43
2023-10-10T05:41:42.000Z,29.13
2023-10-10T05:46:45.064Z,28.83
2023-10-10T05:51:47.225Z,29.03
2023-10-10T05:56:49.339Z,28.80
2023-10-10T06:01:51.796Z,29.17
2023-10-10T06:06:54.025Z,28.03
2023-10-10T06:11:56.207Z,29.73
2023-10-10T06:16:58.459Z,28.03
2023-10-10T06:22:03.973Z,27.80
2023-10-10T06:27:10.327Z,28.57
2023-10-10T06:32:17.411Z,29.90
2023-10-10T06:37:19.712Z,29.83
2023-10-10T06:42:28.613Z,30.43
2023-10-10T06:47:33.791Z,30.47
2023-10-10T06:52:37.903Z,30.03
2023-10-10T06:57:43.605Z,31.00
2023-10-10T07:02:55.095Z,30.20
2023-10-10T07:08:00.599Z,30.17
2023-10-10T07:13:04.883Z,30.33
2023-10-10T07:18:16.501Z,30.40
2023-10-10T07:23:22.051Z,30.30
2023-10-10T07:28:27.345Z,31.23
2023-10-10T07:33:41.984Z,32.10
2023-10-10T07:38:44.209Z,32.90
2023-10-10T07:43:50.894Z,32.20
2023-10-10T07:48:55.963Z,32.17
2023-10-10T07:54:04.246Z,32.73
2023-10-10T07:59:07.086Z,32.13
2023-10-10T08:04:09.536Z,32.93
2023-10-10T08:09:12.879Z,31.97
2023-10-10T08:14:15.274Z,33.20
2023-10-10T08:19:17.572Z,32.30
2023-10-10T08:24:21.601Z,32.17
2023-10-10T08:29:28.474Z,33.20
2023-10-10T08:34:30.756Z,32.93
2023-10-10T08:39:40.667Z,32.67
2023-10-10T08:44:49.294Z,33.27
2023-10-10T08:49:51.935Z,32.80
2023-10-10T08:54:54.864Z,33.73
2023-10-10T08:59:57.289Z,33.40
2023-10-10T09:04:59.633Z,33.47
2023-10-10T09:10:15.355Z,34.13
2023-10-10T09:15:18.534Z,34.30
2023-10-10T09:20:31.777Z,33.70
2023-10-10T09:25:43.764Z,34.03
2023-10-10T09:31:04.601Z,33.70
2023-10-10T09:36:10.188Z,33.90
2023-10-10T09:41:37.615Z,33.47
2023-10-10T09:47:01.700Z,33.90
2023-10-10T09:52:22.891Z,33.30
2023-10-10T09:57:28.225Z,33.70
2023-10-10T10:02:42.013Z,34.07
2023-10-10T10:08:14.152Z,33.93
2023-10-10T10:13:57.818Z,34.00
2023-10-10T10:19:18.809Z,33.77
2023-10-10T10:24:34.447Z,34.10
2023-10-10T10:29:38.869Z,34.13
2023-10-10T10:34:47.139Z,33.87
2023-10-10T10:40:08.061Z,34.60
2023-10-10T10:45:37.744Z,34.37
2023-10-10T10:50:42.563Z,34.40
2023-10-10T10:56:04.840Z,34.50
2023-10-10T11:01:09.822Z,34.30
2023-10-10T11:06:32.627Z,35.17
2023-10-10T11:11:34.827Z,35.37
2023-10-10T11:16:40.109Z,35.97
2023-10-10T11:21:50.137Z,36.90
2023-10-10T11:27:07.165Z,36.67
2023-10-10T11:32:12.922Z,36.60
2023-10-10T11:37:25.628Z,35.43
2023-10-10T11:42:34.599Z,35.93
2023-10-10T11:47:46.243Z,35.10
2023-10-10T11:52:54.915Z,34.80
2023-10-10T11:58:07.769Z,35.07
2023-10-10T12:03:15.334Z,34.70
2023-10-10T12:08:25.997Z,35.63
2023-10-10T12:13:34.978Z,35.13
2023-10-10T12:18:45.250Z,35.20
2023-10-10T12:23:49.347Z,34.97
2023-10-10T12:28:53.997Z,35.47
2023-10-10T12:33:56.170Z,35.00
2023-10-10T12:39:06.030Z,35.10
2023-10-10T12:44:08.427Z,35.83
2023-10-10T12:49:13.195Z,34.97
2023-10-10T12:54:19.157Z,36.03
2023-10-10T13:04:32.833Z,35.10
2023-10-10T13:09:43.819Z,34.37
2023-10-10T13:14:52.172Z,35.27
2023-10-10T13:19:54.337Z,35.17
2023-10-10T13:24:57.197Z,35.13
2023-10-10T13:29:59.395Z,35.23
2023-10-10T13:35:02.094Z,34.83
2023-10-10T13:40:07.216Z,35.23
2023-10-10T13:45:13.044Z,35.60
2023-10-10T13:50:32.870Z,35.97
2023-10-10T13:55:35.607Z,35.87
2023-10-10T14:00:44.677Z,36.07
2023-10-10T14:06:02.151Z,36.00
2023-10-10T14:11:05.472Z,35.27
2023-10-10T14:16:07.784Z,35.50
2023-10-10T14:21:12.316Z,37.53
2023-10-10T14:26:14.693Z,35.33
2023-10-10T14:31:19.130Z,35.97
2023-10-10T14:36:22.821Z,35.03
2023-10-10T14:41:33.765Z,35.50
2023-10-10T14:46:36.080Z,36.73
2023-10-10T14:51:38.925Z,36.77
2023-10-10T14:56:51.611Z,35.07
2023-10-10T15:01:57.295Z,35.23
2023-10-10T15:07:00.497Z,36.50
2023-10-10T15:12:03.323Z,34.77
2023-10-10T15:17:06.503Z,35.27
2023-10-10T15:22:17.312Z,34.73
2023-10-10T15:27:20.775Z,34.33
2023-10-10T15:32:22.951Z,35.20
2023-10-10T15:37:28.115Z,34.73
2023-10-10T15:42:30.340Z,35.20
2023-10-10T15:47:32.927Z,34.60
2023-10-10T15:52:35.171Z,41.93
2023-10-10T15:57:37.379Z,34.97
2023-10-10T16:02:41.393Z,35.43
2023-10-10T16:07:56.001Z,35.20
2023-10-10T16:13:08.521Z,34.87
2023-10-10T16:18:11.490Z,35.27
2023-10-10T16:23:13.958Z,35.20
2023-10-10T16:28:16.078Z,34.30
2023-10-10T16:33:22.348Z,34.37
2023-10-10T16:38:24.685Z,34.90
2023-10-10T16:43:26.858Z,33.97
2023-10-10T16:48:32.687Z,34.23
2023-10-10T16:53:40.978Z,34.70
2023-10-10T16:58:45.006Z,35.57
2023-10-10T17:03:50.293Z,34.93
2023-10-10T17:08:55.913Z,34.63
2023-10-10T17:14:01.049Z,34.27
2023-10-10T17:19:16.315Z,34.23
2023-10-10T17:24:22.355Z,34.40
2023-10-10T17:29:28.060Z,34.37
2023-10-10T17:34:34.788Z,34.97
2023-10-10T17:39:37.545Z,34.57
2023-10-10T17:44:39.846Z,34.57
2023-10-10T17:49:42.465Z,34.23
2023-10-10T17:54:46.759Z,34.07
2023-10-10T17:59:53.936Z,34.23
2023-10-10T18:04:56.499Z,33.70
2023-10-10T18:09:58.703Z,33.60
2023-10-10T18:15:01.991Z,33.73
2023-10-10T18:20:15.771Z,33.03
2023-10-10T18:25:18.055Z,34.80
2023-10-10T18:30:22.011Z,33.87
2023-10-10T18:35:28.281Z,33.90
2023-10-10T18:40:31.523Z,32.67
2023-10-10T18:45:38.460Z,34.23
2023-10-10T18:50:40.907Z,34.47
2023-10-10T18:55:43.144Z,34.10
2023-10-10T19:00:45.416Z,34.53
2023-10-10T19:05:53.947Z,32.77
2023-10-10T19:10:56.186Z,33.03
2023-10-10T19:15:58.479Z,32.20
2023-10-10T19:21:01.532Z,33.17
2023-10-10T19:26:05.850Z,33.03
2023-10-10T19:31:08.031Z,32.83
2023-10-10T19:36:10.624Z,33.50
2023-10-10T19:41:16.162Z,33.77
2023-10-10T19:46:21.480Z,32.30
2023-10-10T19:51:23.790Z,33.13
2023-10-10T19:56:26.056Z,33.80
2023-10-10T20:01:28.687Z,33.13
2023-10-10T20:06:31.467Z,34.13
2023-10-10T20:11:36.859Z,33.03
2023-10-10T20:16:39.892Z,32.90
2023-10-10T20:21:42.199Z,33.93
2023-10-10T20:26:44.466Z,33.97
2023-10-10T20:31:46.651Z,32.67
2023-10-10T20:36:48.810Z,33.37
2023-10-10T20:41:51.113Z,33.13
2023-10-10T20:46:53.354Z,33.00
2023-10-10T20:51:56.183Z,32.10
2023-10-10T20:56:58.506Z,31.40
2023-10-10T21:02:01.051Z,30.57
2023-10-10T21:07:03.319Z,31.03
2023-10-10T21:12:08.793Z,31.80
2023-10-10T21:17:13.602Z,32.83
2023-10-10T21:22:16.576Z,32.77
2023-10-10T21:27:19.992Z,32.43
2023-10-10T21:32:22.710Z,32.20
2023-10-10T21:37:25.413Z,32.50
2023-10-10T21:42:27.598Z,32.23
2023-10-10T21:47:29.778Z,31.87
2023-10-10T21:52:32.053Z,30.97
2023-10-10T21:57:37.306Z,30.40
2023-10-10T22:02:39.657Z,31.47
2023-10-10T22:07:44.978Z,32.13
2023-10-10T22:12:50.534Z,32.13
2023-10-10T22:17:58.694Z,31.87
2023-10-10T22:23:02.158Z,32.00
2023-10-10T22:28:05.766Z,32.73
2023-10-10T22:33:12.271Z,33.87
2023-10-10T22:38:14.771Z,32.57
2023-10-10T22:43:16.947Z,31.43
2023-10-10T22:48:19.211Z,31.30
2023-10-10T22:53:21.381Z,31.03
2023-10-10T22:58:23.490Z,31.43
2023-10-10T23:03:25.819Z,31.13
2023-10-10T23:08:27.959Z,30.80
2023-10-10T23:13:30.035Z,30.77
2023-10-10T23:18:37.495Z,31.27
2023-10-10T23:23:42.458Z,31.43
2023-10-10T23:28:45.582Z,32.00
2023-10-10T23:33:47.740Z,31.47
2023-10-10T23:38:50.147Z,30.80
2023-10-10T23:43:52.307Z,31.23
2023-10-10T23:48:56.208Z,31.53
2023-10-10T23:53:59.819Z,32.47
2023-10-10T23:59:03.523Z,31.33
